sensor_id;sensor_type;location;lat;lon;timestamp;temperature;humidity
35647;DHT22;28680;45.642;13.756;2024-02-16T00:00:18;8.40;99.90
35647;DHT22;28680;45.642;13.756;2024-02-16T00:02:45;8.40;99.90
35647;DHT22;28680;45.642;13.756;2024-02-16T00:05:11;8.40;99.90
35647;DHT22;28680;45.642;13.756;2024-02-16T00:07:38;8.40;99.90
35647;DHT22;28680;45.642;13.756;2024-02-16T00:10:07;8.40;99.90
35647;DHT22;28680;45.642;13.756;2024-02-16T00:12:34;8.40;99.90
35647;DHT22;28680;45.642;13.756;2024-02-16T00:15:01;8.40;99.90
35647;DHT22;28680;45.642;13.756;2024-02-16T00:17:27;8.40;99.90
35647;DHT22;28680;45.642;13.756;2024-02-16T00:19:53;8.40;99.90
35647;DHT22;28680;45.642;13.756;2024-02-16T00:22:26;8.40;99.90
35647;DHT22;28680;45.642;13.756;2024-02-16T00:24:55;8.30;99.90
35647;DHT22;28680;45.642;13.756;2024-02-16T00:27:23;8.40;99.90
35647;DHT22;28680;45.642;13.756;2024-02-16T00:29:49;8.50;99.90
35647;DHT22;28680;45.642;13.756;2024-02-16T00:32:15;8.50;99.90
35647;DHT22;28680;45.642;13.756;2024-02-16T00:34:54;8.40;99.90
35647;DHT22;28680;45.642;13.756;2024-02-16T00:37:26;8.40;99.90
35647;DHT22;28680;45.642;13.756;2024-02-16T00:40:11;8.40;99.90
35647;DHT22;28680;45.642;13.756;2024-02-16T00:42:37;8.40;99.90
35647;DHT22;28680;45.642;13.756;2024-02-16T00:45:05;8.40;99.90
35647;DHT22;28680;45.642;13.756;2024-02-16T00:47:30;8.40;99.90
35647;DHT22;28680;45.642;13.756;2024-02-16T00:49:56;8.40;99.90
35647;DHT22;28680;45.642;13.756;2024-02-16T00:52:22;8.40;99.90
35647;DHT22;28680;45.642;13.756;2024-02-16T00:54:49;8.40;99.90
35647;DHT22;28680;45.642;13.756;2024-02-16T00:57:15;8.30;99.90
35647;DHT22;28680;45.642;13.756;2024-02-16T00:59:42;8.40;99.90
35647;DHT22;28680;45.642;13.756;2024-02-16T01:02:08;8.30;99.90
35647;DHT22;28680;45.642;13.756;2024-02-16T01:04:36;8.20;99.90
35647;DHT22;28680;45.642;13.756;2024-02-16T01:07:03;8.30;99.90
35647;DHT22;28680;45.642;13.756;2024-02-16T01:09:29;8.20;99.90
35647;DHT22;28680;45.642;13.756;2024-02-16T01:11:55;8.20;99.90
35647;DHT22;28680;45.642;13.756;2024-02-16T01:14:21;8.30;99.90
35647;DHT22;28680;45.642;13.756;2024-02-16T01:16:47;8.20;99.90
35647;DHT22;28680;45.642;13.756;2024-02-16T01:19:13;8.30;99.90
35647;DHT22;28680;45.642;13.756;2024-02-16T01:21:39;8.30;99.90
35647;DHT22;28680;45.642;13.756;2024-02-16T01:24:05;8.30;99.90
35647;DHT22;28680;45.642;13.756;2024-02-16T01:26:32;8.40;99.90
35647;DHT22;28680;45.642;13.756;2024-02-16T01:28:58;8.30;99.90
35647;DHT22;28680;45.642;13.756;2024-02-16T01:31:24;8.40;99.90
35647;DHT22;28680;45.642;13.756;2024-02-16T01:33:50;8.30;99.90
35647;DHT22;28680;45.642;13.756;2024-02-16T01:36:16;8.40;99.90
35647;DHT22;28680;45.642;13.756;2024-02-16T01:38:41;8.40;99.90
35647;DHT22;28680;45.642;13.756;2024-02-16T01:41:07;8.40;99.90
35647;DHT22;28680;45.642;13.756;2024-02-16T01:43:34;8.40;99.90
35647;DHT22;28680;45.642;13.756;2024-02-16T01:46:00;8.50;99.90
35647;DHT22;28680;45.642;13.756;2024-02-16T01:48:27;8.40;99.90
35647;DHT22;28680;45.642;13.756;2024-02-16T01:50:54;8.30;99.90
35647;DHT22;28680;45.642;13.756;2024-02-16T01:53:20;8.30;99.90
35647;DHT22;28680;45.642;13.756;2024-02-16T01:55:47;8.30;99.90
35647;DHT22;28680;45.642;13.756;2024-02-16T01:58:13;8.30;99.90
35647;DHT22;28680;45.642;13.756;2024-02-16T02:00:40;8.20;99.90
35647;DHT22;28680;45.642;13.756;2024-02-16T02:03:12;8.20;99.90
35647;DHT22;28680;45.642;13.756;2024-02-16T02:05:53;8.10;99.90
35647;DHT22;28680;45.642;13.756;2024-02-16T02:08:30;8.10;99.90
35647;DHT22;28680;45.642;13.756;2024-02-16T02:10:56;8.00;99.90
35647;DHT22;28680;45.642;13.756;2024-02-16T02:13:22;8.00;99.90
35647;DHT22;28680;45.642;13.756;2024-02-16T02:16:16;7.90;99.90
35647;DHT22;28680;45.642;13.756;2024-02-16T02:18:54;8.00;99.90
35647;DHT22;28680;45.642;13.756;2024-02-16T02:21:26;8.00;99.90
35647;DHT22;28680;45.642;13.756;2024-02-16T02:23:56;8.00;99.90
35647;DHT22;28680;45.642;13.756;2024-02-16T02:26:25;8.10;99.90
35647;DHT22;28680;45.642;13.756;2024-02-16T02:28:53;8.10;99.90
35647;DHT22;28680;45.642;13.756;2024-02-16T02:31:19;8.00;99.90
35647;DHT22;28680;45.642;13.756;2024-02-16T02:33:51;8.00;99.90
35647;DHT22;28680;45.642;13.756;2024-02-16T02:36:21;8.00;99.90
35647;DHT22;28680;45.642;13.756;2024-02-16T02:38:47;8.00;99.90
35647;DHT22;28680;45.642;13.756;2024-02-16T02:41:26;8.00;99.90
35647;DHT22;28680;45.642;13.756;2024-02-16T02:43:55;8.00;99.90
35647;DHT22;28680;45.642;13.756;2024-02-16T02:46:50;7.90;99.90
35647;DHT22;28680;45.642;13.756;2024-02-16T02:49:17;7.70;99.90
35647;DHT22;28680;45.642;13.756;2024-02-16T02:51:50;7.80;99.90
35647;DHT22;28680;45.642;13.756;2024-02-16T02:54:16;7.90;99.90
35647;DHT22;28680;45.642;13.756;2024-02-16T02:56:43;7.80;99.90
35647;DHT22;28680;45.642;13.756;2024-02-16T02:59:12;7.80;99.90
35647;DHT22;28680;45.642;13.756;2024-02-16T03:01:44;7.80;99.90
35647;DHT22;28680;45.642;13.756;2024-02-16T03:04:11;7.70;99.90
35647;DHT22;28680;45.642;13.756;2024-02-16T03:06:39;7.60;99.90
35647;DHT22;28680;45.642;13.756;2024-02-16T03:09:05;7.60;99.90
35647;DHT22;28680;45.642;13.756;2024-02-16T03:11:32;7.60;99.90
35647;DHT22;28680;45.642;13.756;2024-02-16T03:18:05;7.40;99.90
35647;DHT22;28680;45.642;13.756;2024-02-16T03:24:47;7.20;99.90
35647;DHT22;28680;45.642;13.756;2024-02-16T03:27:13;7.40;99.90
35647;DHT22;28680;45.642;13.756;2024-02-16T03:29:42;7.40;99.90
35647;DHT22;28680;45.642;13.756;2024-02-16T03:32:12;7.60;99.90
35647;DHT22;28680;45.642;13.756;2024-02-16T03:34:45;7.60;99.90
35647;DHT22;28680;45.642;13.756;2024-02-16T03:37:11;7.80;99.90
35647;DHT22;28680;45.642;13.756;2024-02-16T03:39:44;7.70;99.90
35647;DHT22;28680;45.642;13.756;2024-02-16T03:42:16;7.60;99.90
35647;DHT22;28680;45.642;13.756;2024-02-16T03:44:49;7.50;99.90
35647;DHT22;28680;45.642;13.756;2024-02-16T03:47:15;7.60;99.90
35647;DHT22;28680;45.642;13.756;2024-02-16T03:49:46;7.60;99.90
35647;DHT22;28680;45.642;13.756;2024-02-16T03:52:12;7.70;99.90
35647;DHT22;28680;45.642;13.756;2024-02-16T03:54:39;7.60;99.90
35647;DHT22;28680;45.642;13.756;2024-02-16T03:57:05;7.60;99.90
35647;DHT22;28680;45.642;13.756;2024-02-16T03:59:38;7.60;99.90
35647;DHT22;28680;45.642;13.756;2024-02-16T04:02:06;7.70;99.90
35647;DHT22;28680;45.642;13.756;2024-02-16T04:04:32;7.60;99.90
35647;DHT22;28680;45.642;13.756;2024-02-16T04:06:58;7.60;99.90
35647;DHT22;28680;45.642;13.756;2024-02-16T04:09:24;7.50;99.90
35647;DHT22;28680;45.642;13.756;2024-02-16T04:12:02;7.50;99.90
35647;DHT22;28680;45.642;13.756;2024-02-16T04:14:32;7.40;99.90
35647;DHT22;28680;45.642;13.756;2024-02-16T04:17:08;7.50;99.90
35647;DHT22;28680;45.642;13.756;2024-02-16T04:19:50;7.40;99.90
35647;DHT22;28680;45.642;13.756;2024-02-16T04:22:19;7.60;99.90
35647;DHT22;28680;45.642;13.756;2024-02-16T04:24:46;7.60;99.90
35647;DHT22;28680;45.642;13.756;2024-02-16T04:27:12;7.50;99.90
35647;DHT22;28680;45.642;13.756;2024-02-16T04:29:37;7.50;99.90
35647;DHT22;28680;45.642;13.756;2024-02-16T04:32:04;7.50;99.90
35647;DHT22;28680;45.642;13.756;2024-02-16T04:34:35;7.40;99.90
35647;DHT22;28680;45.642;13.756;2024-02-16T04:37:01;7.40;99.90
35647;DHT22;28680;45.642;13.756;2024-02-16T04:39:29;7.40;99.90
35647;DHT22;28680;45.642;13.756;2024-02-16T04:42:19;7.40;99.90
35647;DHT22;28680;45.642;13.756;2024-02-16T04:44:45;7.30;99.90
35647;DHT22;28680;45.642;13.756;2024-02-16T04:47:34;7.20;99.90
35647;DHT22;28680;45.642;13.756;2024-02-16T04:50:03;7.10;99.90
35647;DHT22;28680;45.642;13.756;2024-02-16T04:52:30;7.30;99.90
35647;DHT22;28680;45.642;13.756;2024-02-16T04:58:50;7.20;99.90
35647;DHT22;28680;45.642;13.756;2024-02-16T05:01:31;7.20;99.90
35647;DHT22;28680;45.642;13.756;2024-02-16T05:04:06;7.10;99.90
35647;DHT22;28680;45.642;13.756;2024-02-16T05:07:01;7.00;99.90
35647;DHT22;28680;45.642;13.756;2024-02-16T05:09:27;6.90;99.90
35647;DHT22;28680;45.642;13.756;2024-02-16T05:15:10;6.80;99.90
35647;DHT22;28680;45.642;13.756;2024-02-16T05:18:04;6.90;99.90
35647;DHT22;28680;45.642;13.756;2024-02-16T05:20:43;6.80;99.90
35647;DHT22;28680;45.642;13.756;2024-02-16T05:23:09;6.80;99.90
35647;DHT22;28680;45.642;13.756;2024-02-16T05:25:36;6.80;99.90
35647;DHT22;28680;45.642;13.756;2024-02-16T05:28:07;6.80;99.90
35647;DHT22;28680;45.642;13.756;2024-02-16T05:30:33;6.80;99.90
35647;DHT22;28680;45.642;13.756;2024-02-16T05:33:31;6.90;99.90
35647;DHT22;28680;45.642;13.756;2024-02-16T05:35:57;6.90;99.90
35647;DHT22;28680;45.642;13.756;2024-02-16T05:38:30;6.80;99.90
35647;DHT22;28680;45.642;13.756;2024-02-16T05:41:40;6.80;99.90
35647;DHT22;28680;45.642;13.756;2024-02-16T05:44:12;6.80;99.90
35647;DHT22;28680;45.642;13.756;2024-02-16T05:46:48;6.80;99.90
35647;DHT22;28680;45.642;13.756;2024-02-16T05:49:17;6.90;99.90
35647;DHT22;28680;45.642;13.756;2024-02-16T05:51:49;6.90;99.90
35647;DHT22;28680;45.642;13.756;2024-02-16T05:54:45;6.80;99.90
35647;DHT22;28680;45.642;13.756;2024-02-16T05:57:23;6.80;99.90
35647;DHT22;28680;45.642;13.756;2024-02-16T05:59:50;6.80;99.90
35647;DHT22;28680;45.642;13.756;2024-02-16T06:02:25;6.70;99.90
35647;DHT22;28680;45.642;13.756;2024-02-16T06:04:52;6.70;99.90
35647;DHT22;28680;45.642;13.756;2024-02-16T06:07:18;6.70;99.90
35647;DHT22;28680;45.642;13.756;2024-02-16T06:09:44;6.70;99.90
35647;DHT22;28680;45.642;13.756;2024-02-16T06:12:10;6.70;99.90
35647;DHT22;28680;45.642;13.756;2024-02-16T06:14:38;6.70;99.90
35647;DHT22;28680;45.642;13.756;2024-02-16T06:17:04;6.70;99.90
35647;DHT22;28680;45.642;13.756;2024-02-16T06:19:30;6.60;99.90
35647;DHT22;28680;45.642;13.756;2024-02-16T06:21:56;6.50;99.90
35647;DHT22;28680;45.642;13.756;2024-02-16T06:24:25;6.60;99.90
35647;DHT22;28680;45.642;13.756;2024-02-16T06:26:51;6.70;99.90
35647;DHT22;28680;45.642;13.756;2024-02-16T06:29:18;6.70;99.90
35647;DHT22;28680;45.642;13.756;2024-02-16T06:31:53;6.70;99.90
35647;DHT22;28680;45.642;13.756;2024-02-16T06:34:19;6.70;99.90
35647;DHT22;28680;45.642;13.756;2024-02-16T06:36:46;6.70;99.90
35647;DHT22;28680;45.642;13.756;2024-02-16T06:39:12;6.80;99.90
35647;DHT22;28680;45.642;13.756;2024-02-16T06:41:46;7.10;99.90
35647;DHT22;28680;45.642;13.756;2024-02-16T06:44:13;6.80;99.90
35647;DHT22;28680;45.642;13.756;2024-02-16T06:46:44;6.80;99.90
35647;DHT22;28680;45.642;13.756;2024-02-16T06:49:10;6.90;99.90
35647;DHT22;28680;45.642;13.756;2024-02-16T06:51:36;6.90;99.90
35647;DHT22;28680;45.642;13.756;2024-02-16T06:54:03;7.10;99.90
35647;DHT22;28680;45.642;13.756;2024-02-16T06:56:44;7.00;99.90
35647;DHT22;28680;45.642;13.756;2024-02-16T06:59:32;7.10;99.90
35647;DHT22;28680;45.642;13.756;2024-02-16T07:01:58;7.10;99.90
35647;DHT22;28680;45.642;13.756;2024-02-16T07:04:27;7.10;99.90
35647;DHT22;28680;45.642;13.756;2024-02-16T07:06:54;7.10;99.90
35647;DHT22;28680;45.642;13.756;2024-02-16T07:09:19;7.10;99.90
35647;DHT22;28680;45.642;13.756;2024-02-16T07:11:50;6.80;99.90
35647;DHT22;28680;45.642;13.756;2024-02-16T07:14:20;7.10;99.90
35647;DHT22;28680;45.642;13.756;2024-02-16T07:16:46;7.10;99.90
35647;DHT22;28680;45.642;13.756;2024-02-16T07:19:12;7.20;99.90
35647;DHT22;28680;45.642;13.756;2024-02-16T07:21:38;7.30;99.90
35647;DHT22;28680;45.642;13.756;2024-02-16T07:24:04;7.30;99.90
35647;DHT22;28680;45.642;13.756;2024-02-16T07:26:30;7.20;99.90
35647;DHT22;28680;45.642;13.756;2024-02-16T07:28:55;7.20;99.90
35647;DHT22;28680;45.642;13.756;2024-02-16T07:31:23;7.30;99.90
35647;DHT22;28680;45.642;13.756;2024-02-16T07:33:48;7.10;99.90
35647;DHT22;28680;45.642;13.756;2024-02-16T07:36:16;7.10;99.90
35647;DHT22;28680;45.642;13.756;2024-02-16T07:38:44;7.00;99.90
35647;DHT22;28680;45.642;13.756;2024-02-16T07:41:10;7.10;99.90
35647;DHT22;28680;45.642;13.756;2024-02-16T07:43:36;7.10;99.90
35647;DHT22;28680;45.642;13.756;2024-02-16T07:46:02;7.30;99.90
35647;DHT22;28680;45.642;13.756;2024-02-16T07:48:30;7.40;99.90
35647;DHT22;28680;45.642;13.756;2024-02-16T07:50:56;7.50;99.90
35647;DHT22;28680;45.642;13.756;2024-02-16T07:53:23;7.80;99.90
35647;DHT22;28680;45.642;13.756;2024-02-16T07:55:49;8.10;99.90
35647;DHT22;28680;45.642;13.756;2024-02-16T07:58:16;8.30;99.90
35647;DHT22;28680;45.642;13.756;2024-02-16T08:00:42;8.50;99.90
35647;DHT22;28680;45.642;13.756;2024-02-16T08:03:08;8.60;99.90
35647;DHT22;28680;45.642;13.756;2024-02-16T08:05:34;8.40;99.90
35647;DHT22;28680;45.642;13.756;2024-02-16T08:07:59;8.40;99.90
35647;DHT22;28680;45.642;13.756;2024-02-16T08:10:25;8.30;99.90
35647;DHT22;28680;45.642;13.756;2024-02-16T08:12:51;8.20;99.90
35647;DHT22;28680;45.642;13.756;2024-02-16T08:15:18;8.20;99.90
35647;DHT22;28680;45.642;13.756;2024-02-16T08:17:49;8.20;99.90
35647;DHT22;28680;45.642;13.756;2024-02-16T08:20:16;8.00;99.90
35647;DHT22;28680;45.642;13.756;2024-02-16T08:22:42;8.00;99.90
35647;DHT22;28680;45.642;13.756;2024-02-16T08:25:08;7.90;99.90
35647;DHT22;28680;45.642;13.756;2024-02-16T08:27:34;7.90;99.90
35647;DHT22;28680;45.642;13.756;2024-02-16T08:30:00;8.00;99.90
35647;DHT22;28680;45.642;13.756;2024-02-16T08:32:28;8.00;99.90
35647;DHT22;28680;45.642;13.756;2024-02-16T08:34:55;8.00;99.90
35647;DHT22;28680;45.642;13.756;2024-02-16T08:37:21;8.00;99.90
35647;DHT22;28680;45.642;13.756;2024-02-16T08:39:47;8.10;99.90
35647;DHT22;28680;45.642;13.756;2024-02-16T08:42:13;8.20;99.90
35647;DHT22;28680;45.642;13.756;2024-02-16T08:44:40;8.20;99.90
35647;DHT22;28680;45.642;13.756;2024-02-16T08:47:08;8.30;99.90
35647;DHT22;28680;45.642;13.756;2024-02-16T08:49:35;8.30;99.90
35647;DHT22;28680;45.642;13.756;2024-02-16T08:52:01;8.40;99.90
35647;DHT22;28680;45.642;13.756;2024-02-16T08:54:27;8.60;99.90
35647;DHT22;28680;45.642;13.756;2024-02-16T08:56:55;8.60;99.90
35647;DHT22;28680;45.642;13.756;2024-02-16T08:59:21;8.80;99.90
35647;DHT22;28680;45.642;13.756;2024-02-16T09:01:47;9.00;99.90
35647;DHT22;28680;45.642;13.756;2024-02-16T09:04:13;9.20;99.90
35647;DHT22;28680;45.642;13.756;2024-02-16T09:06:39;9.50;99.90
35647;DHT22;28680;45.642;13.756;2024-02-16T09:09:05;9.80;99.90
35647;DHT22;28680;45.642;13.756;2024-02-16T09:11:33;10.10;99.90
35647;DHT22;28680;45.642;13.756;2024-02-16T09:13:59;10.40;99.90
35647;DHT22;28680;45.642;13.756;2024-02-16T09:16:26;10.60;99.90
35647;DHT22;28680;45.642;13.756;2024-02-16T09:18:52;10.90;99.90
35647;DHT22;28680;45.642;13.756;2024-02-16T09:21:18;11.10;99.90
35647;DHT22;28680;45.642;13.756;2024-02-16T09:23:44;11.30;99.90
35647;DHT22;28680;45.642;13.756;2024-02-16T09:26:09;11.00;99.90
35647;DHT22;28680;45.642;13.756;2024-02-16T09:28:39;10.60;99.90
35647;DHT22;28680;45.642;13.756;2024-02-16T09:31:08;10.50;99.90
35647;DHT22;28680;45.642;13.756;2024-02-16T09:33:34;11.00;99.90
35647;DHT22;28680;45.642;13.756;2024-02-16T09:36:01;11.10;99.90
35647;DHT22;28680;45.642;13.756;2024-02-16T09:38:26;11.60;99.90
35647;DHT22;28680;45.642;13.756;2024-02-16T09:40:52;12.20;99.90
35647;DHT22;28680;45.642;13.756;2024-02-16T09:43:25;12.60;99.90
35647;DHT22;28680;45.642;13.756;2024-02-16T09:45:58;13.10;99.90
35647;DHT22;28680;45.642;13.756;2024-02-16T09:48:28;13.80;99.90
35647;DHT22;28680;45.642;13.756;2024-02-16T09:50:55;14.00;99.90
35647;DHT22;28680;45.642;13.756;2024-02-16T09:53:24;13.90;99.90
35647;DHT22;28680;45.642;13.756;2024-02-16T09:55:50;13.70;99.90
35647;DHT22;28680;45.642;13.756;2024-02-16T09:58:20;14.00;99.90
35647;DHT22;28680;45.642;13.756;2024-02-16T10:00:53;14.20;99.90
35647;DHT22;28680;45.642;13.756;2024-02-16T10:03:30;14.60;99.90
35647;DHT22;28680;45.642;13.756;2024-02-16T10:06:05;14.80;99.90
35647;DHT22;28680;45.642;13.756;2024-02-16T10:08:32;14.80;99.90
35647;DHT22;28680;45.642;13.756;2024-02-16T10:11:03;14.70;99.90
35647;DHT22;28680;45.642;13.756;2024-02-16T10:13:30;14.60;99.90
35647;DHT22;28680;45.642;13.756;2024-02-16T10:16:10;14.40;99.90
35647;DHT22;28680;45.642;13.756;2024-02-16T10:18:37;14.30;99.90
35647;DHT22;28680;45.642;13.756;2024-02-16T10:21:04;14.00;99.90
35647;DHT22;28680;45.642;13.756;2024-02-16T10:23:30;14.30;99.90
35647;DHT22;28680;45.642;13.756;2024-02-16T10:25:56;14.70;99.90
35647;DHT22;28680;45.642;13.756;2024-02-16T10:28:28;14.90;99.90
35647;DHT22;28680;45.642;13.756;2024-02-16T10:30:59;15.30;99.90
35647;DHT22;28680;45.642;13.756;2024-02-16T10:33:31;15.70;99.90
35647;DHT22;28680;45.642;13.756;2024-02-16T10:35:57;15.80;99.90
35647;DHT22;28680;45.642;13.756;2024-02-16T10:38:25;16.10;99.90
35647;DHT22;28680;45.642;13.756;2024-02-16T10:40:53;16.20;99.90
35647;DHT22;28680;45.642;13.756;2024-02-16T10:43:21;16.30;99.90
35647;DHT22;28680;45.642;13.756;2024-02-16T10:45:47;16.40;99.90
35647;DHT22;28680;45.642;13.756;2024-02-16T10:48:18;16.40;99.90
35647;DHT22;28680;45.642;13.756;2024-02-16T10:50:44;16.70;99.90
35647;DHT22;28680;45.642;13.756;2024-02-16T10:53:23;16.40;99.90
35647;DHT22;28680;45.642;13.756;2024-02-16T10:55:50;16.30;99.90
35647;DHT22;28680;45.642;13.756;2024-02-16T10:58:18;16.10;99.90
35647;DHT22;28680;45.642;13.756;2024-02-16T11:00:51;16.60;99.90
35647;DHT22;28680;45.642;13.756;2024-02-16T11:03:17;17.00;99.90
35647;DHT22;28680;45.642;13.756;2024-02-16T11:05:48;17.00;99.90
35647;DHT22;28680;45.642;13.756;2024-02-16T11:08:17;16.60;99.90
35647;DHT22;28680;45.642;13.756;2024-02-16T11:11:02;16.80;99.90
35647;DHT22;28680;45.642;13.756;2024-02-16T11:13:35;17.10;99.90
35647;DHT22;28680;45.642;13.756;2024-02-16T11:16:03;17.30;99.90
35647;DHT22;28680;45.642;13.756;2024-02-16T11:18:30;17.30;99.90
35647;DHT22;28680;45.642;13.756;2024-02-16T11:21:00;16.90;99.90
35647;DHT22;28680;45.642;13.756;2024-02-16T11:23:28;16.20;99.90
35647;DHT22;28680;45.642;13.756;2024-02-16T11:26:06;16.30;99.90
35647;DHT22;28680;45.642;13.756;2024-02-16T11:28:37;16.50;99.90
35647;DHT22;28680;45.642;13.756;2024-02-16T11:31:03;16.60;99.90
35647;DHT22;28680;45.642;13.756;2024-02-16T11:33:30;17.00;99.90
35647;DHT22;28680;45.642;13.756;2024-02-16T11:36:00;17.70;99.90
35647;DHT22;28680;45.642;13.756;2024-02-16T11:38:27;17.70;99.90
35647;DHT22;28680;45.642;13.756;2024-02-16T11:40:57;18.00;99.90
35647;DHT22;28680;45.642;13.756;2024-02-16T11:43:24;18.50;99.90
35647;DHT22;28680;45.642;13.756;2024-02-16T11:45:51;18.60;99.90
35647;DHT22;28680;45.642;13.756;2024-02-16T11:48:25;18.50;99.90
35647;DHT22;28680;45.642;13.756;2024-02-16T11:50:59;18.50;99.90
35647;DHT22;28680;45.642;13.756;2024-02-16T11:53:25;18.70;99.90
35647;DHT22;28680;45.642;13.756;2024-02-16T11:55:51;18.90;99.90
35647;DHT22;28680;45.642;13.756;2024-02-16T11:58:17;19.00;99.90
35647;DHT22;28680;45.642;13.756;2024-02-16T19:57:13;8.00;99.90
35647;DHT22;28680;45.642;13.756;2024-02-16T19:59:39;8.00;99.90
35647;DHT22;28680;45.642;13.756;2024-02-16T20:02:05;7.80;99.90
35647;DHT22;28680;45.642;13.756;2024-02-16T20:04:31;7.70;99.90
35647;DHT22;28680;45.642;13.756;2024-02-16T20:06:59;7.90;99.90
35647;DHT22;28680;45.642;13.756;2024-02-16T20:09:28;7.90;99.90
35647;DHT22;28680;45.642;13.756;2024-02-16T20:11:54;7.90;99.90
35647;DHT22;28680;45.642;13.756;2024-02-16T20:14:20;7.70;99.90
35647;DHT22;28680;45.642;13.756;2024-02-16T20:16:46;7.60;99.90
35647;DHT22;28680;45.642;13.756;2024-02-16T20:19:13;7.50;99.90
35647;DHT22;28680;45.642;13.756;2024-02-16T20:21:41;7.40;99.90
35647;DHT22;28680;45.642;13.756;2024-02-16T20:24:10;7.30;99.90
35647;DHT22;28680;45.642;13.756;2024-02-16T20:26:38;7.30;99.90
35647;DHT22;28680;45.642;13.756;2024-02-16T20:29:06;7.20;99.90
35647;DHT22;28680;45.642;13.756;2024-02-16T20:31:39;7.30;99.90
35647;DHT22;28680;45.642;13.756;2024-02-16T20:34:32;7.20;99.90
35647;DHT22;28680;45.642;13.756;2024-02-16T20:37:01;7.20;99.90
35647;DHT22;28680;45.642;13.756;2024-02-16T20:42:53;6.90;99.90
35647;DHT22;28680;45.642;13.756;2024-02-16T20:45:30;7.30;99.90
35647;DHT22;28680;45.642;13.756;2024-02-16T20:47:58;7.20;99.90
35647;DHT22;28680;45.642;13.756;2024-02-16T20:50:25;7.20;99.90
35647;DHT22;28680;45.642;13.756;2024-02-16T20:52:50;7.20;99.90
35647;DHT22;28680;45.642;13.756;2024-02-16T20:55:18;7.30;99.90
35647;DHT22;28680;45.642;13.756;2024-02-16T20:57:44;7.10;99.90
35647;DHT22;28680;45.642;13.756;2024-02-16T21:00:10;7.20;99.90
35647;DHT22;28680;45.642;13.756;2024-02-16T21:02:37;7.10;99.90
35647;DHT22;28680;45.642;13.756;2024-02-16T21:05:04;7.10;99.90
35647;DHT22;28680;45.642;13.756;2024-02-16T21:07:30;7.00;99.90
35647;DHT22;28680;45.642;13.756;2024-02-16T21:09:56;7.10;99.90
35647;DHT22;28680;45.642;13.756;2024-02-16T21:12:25;7.20;99.90
35647;DHT22;28680;45.642;13.756;2024-02-16T21:14:51;7.30;99.90
35647;DHT22;28680;45.642;13.756;2024-02-16T21:17:18;7.30;99.90
35647;DHT22;28680;45.642;13.756;2024-02-16T21:19:44;7.30;99.90
35647;DHT22;28680;45.642;13.756;2024-02-16T21:22:11;7.20;99.90
35647;DHT22;28680;45.642;13.756;2024-02-16T21:24:37;7.20;99.90
35647;DHT22;28680;45.642;13.756;2024-02-16T21:27:03;7.10;99.90
35647;DHT22;28680;45.642;13.756;2024-02-16T21:29:29;7.00;99.90
35647;DHT22;28680;45.642;13.756;2024-02-16T21:31:55;7.10;99.90
35647;DHT22;28680;45.642;13.756;2024-02-16T21:34:21;7.10;99.90
35647;DHT22;28680;45.642;13.756;2024-02-16T21:36:47;7.10;99.90
35647;DHT22;28680;45.642;13.756;2024-02-16T21:39:20;7.10;99.90
35647;DHT22;28680;45.642;13.756;2024-02-16T21:41:46;7.20;99.90
35647;DHT22;28680;45.642;13.756;2024-02-16T21:44:12;7.20;99.90
35647;DHT22;28680;45.642;13.756;2024-02-16T21:46:38;7.20;99.90
35647;DHT22;28680;45.642;13.756;2024-02-16T21:49:07;7.10;99.90
35647;DHT22;28680;45.642;13.756;2024-02-16T21:51:35;7.10;99.90
35647;DHT22;28680;45.642;13.756;2024-02-16T21:54:03;7.10;99.90
35647;DHT22;28680;45.642;13.756;2024-02-16T21:56:29;7.00;99.90
35647;DHT22;28680;45.642;13.756;2024-02-16T21:58:55;6.90;99.90
35647;DHT22;28680;45.642;13.756;2024-02-16T22:01:24;6.80;99.90
35647;DHT22;28680;45.642;13.756;2024-02-16T22:03:50;6.90;99.90
35647;DHT22;28680;45.642;13.756;2024-02-16T22:06:23;6.80;99.90
35647;DHT22;28680;45.642;13.756;2024-02-16T22:08:50;6.60;99.90
35647;DHT22;28680;45.642;13.756;2024-02-16T22:11:16;6.70;99.90
35647;DHT22;28680;45.642;13.756;2024-02-16T22:13:46;6.80;99.90
35647;DHT22;28680;45.642;13.756;2024-02-16T22:16:12;6.90;99.90
35647;DHT22;28680;45.642;13.756;2024-02-16T22:18:39;6.80;99.90
35647;DHT22;28680;45.642;13.756;2024-02-16T22:21:08;6.80;99.90
35647;DHT22;28680;45.642;13.756;2024-02-16T22:23:34;6.90;99.90
35647;DHT22;28680;45.642;13.756;2024-02-16T22:26:04;6.80;99.90
35647;DHT22;28680;45.642;13.756;2024-02-16T22:28:32;6.70;99.90
35647;DHT22;28680;45.642;13.756;2024-02-16T22:30:58;6.90;99.90
35647;DHT22;28680;45.642;13.756;2024-02-16T22:33:25;6.80;99.90
35647;DHT22;28680;45.642;13.756;2024-02-16T22:36:03;6.70;99.90
35647;DHT22;28680;45.642;13.756;2024-02-16T22:38:28;6.60;99.90
35647;DHT22;28680;45.642;13.756;2024-02-16T22:40:58;6.60;99.90
35647;DHT22;28680;45.642;13.756;2024-02-16T22:46:21;6.70;99.90
35647;DHT22;28680;45.642;13.756;2024-02-16T22:48:46;6.70;99.90
35647;DHT22;28680;45.642;13.756;2024-02-16T22:51:15;6.70;99.90
35647;DHT22;28680;45.642;13.756;2024-02-16T22:53:41;6.50;99.90
35647;DHT22;28680;45.642;13.756;2024-02-16T22:56:07;6.60;99.90
35647;DHT22;28680;45.642;13.756;2024-02-16T22:58:36;6.70;99.90
35647;DHT22;28680;45.642;13.756;2024-02-16T23:01:01;6.70;99.90
35647;DHT22;28680;45.642;13.756;2024-02-16T23:03:27;6.70;99.90
35647;DHT22;28680;45.642;13.756;2024-02-16T23:05:53;6.50;99.90
35647;DHT22;28680;45.642;13.756;2024-02-16T23:08:23;6.60;99.90
35647;DHT22;28680;45.642;13.756;2024-02-16T23:10:48;6.50;99.90
35647;DHT22;28680;45.642;13.756;2024-02-16T23:13:15;6.60;99.90
35647;DHT22;28680;45.642;13.756;2024-02-16T23:15:41;6.70;99.90
35647;DHT22;28680;45.642;13.756;2024-02-16T23:18:07;6.70;99.90
35647;DHT22;28680;45.642;13.756;2024-02-16T23:20:33;6.60;99.90
35647;DHT22;28680;45.642;13.756;2024-02-16T23:23:06;6.50;99.90
35647;DHT22;28680;45.642;13.756;2024-02-16T23:25:40;6.50;99.90
35647;DHT22;28680;45.642;13.756;2024-02-16T23:28:11;6.50;99.90
35647;DHT22;28680;45.642;13.756;2024-02-16T23:30:44;6.50;99.90
35647;DHT22;28680;45.642;13.756;2024-02-16T23:33:10;6.40;99.90
35647;DHT22;28680;45.642;13.756;2024-02-16T23:35:37;6.50;99.90
35647;DHT22;28680;45.642;13.756;2024-02-16T23:38:03;6.60;99.90
35647;DHT22;28680;45.642;13.756;2024-02-16T23:40:30;6.60;99.90
35647;DHT22;28680;45.642;13.756;2024-02-16T23:42:56;6.50;99.90
35647;DHT22;28680;45.642;13.756;2024-02-16T23:45:21;6.60;99.90
35647;DHT22;28680;45.642;13.756;2024-02-16T23:47:48;6.60;99.90
35647;DHT22;28680;45.642;13.756;2024-02-16T23:50:16;6.50;99.90
35647;DHT22;28680;45.642;13.756;2024-02-16T23:52:42;6.40;99.90
35647;DHT22;28680;45.642;13.756;2024-02-16T23:55:09;6.40;99.90